CheckWX is a tool to help pilots better visualize weather data.  It is not intended as a substitute for an official pre-flight weather briefing.

20:32:34 UTC

KMBL TAF
Manistee Co-Blacker Airport
Manistee, Michigan, USA
KMBL 221726Z 2217/2318 35015G25KT P6SM BKN028 FM222000 35012G22KT P6SM SCT028 FM230100 35010G15KT P6SM FEW250 FM231100 00000KT P6SM FEW250

Mar-22@
17:00 UTC

Mar-22 @ 17:00 UTC

Mar-22@
20:00 UTC

Mar-22 @ 20:00 UTC

KMBL 221726Z 2217/2318 35015G25KT P6SM BKN028

Expired

Wind
  • 350° at 15 KTS
  • {Gusting to 25 KTS
Cloud Levels
  • Broken at 2,800' AGL

Mar-22@
20:00 UTC

Mar-22 @ 20:00 UTC

Mar-23@
01:00 UTC

Mar-23 @ 01:00 UTC

FM222000 35012G22KT P6SM SCT028

From

From Standard forecast or significant change

Wind
  • 350° at 12 KTS
  • {Gusting to 22 KTS
Cloud Levels
  • Scattered at 2,800' AGL

Mar-23@
01:00 UTC

Mar-23 @ 01:00 UTC

Mar-23@
11:00 UTC

Mar-23 @ 11:00 UTC

FM230100 35010G15KT P6SM FEW250

From

From Standard forecast or significant change

Wind
  • 350° at 10 KTS
  • {Gusting to 15 KTS
Cloud Levels
  • Few at 25,000' AGL

Mar-23@
11:00 UTC

Mar-23 @ 11:00 UTC

Mar-23@
18:00 UTC

Mar-23 @ 18:00 UTC

FM231100 00000KT P6SM FEW250

From

From Standard forecast or significant change

Cloud Levels
  • Few at 25,000' AGL